createdAt,value
2023-11-13T00:00:15.360Z,100833.72
2023-11-13T00:02:42.416Z,100834.56
2023-11-13T00:05:09.323Z,100830.25
2023-11-13T00:07:36.342Z,100813.06
2023-11-13T00:10:03.462Z,100811.41
2023-11-13T00:12:30.758Z,100821.50
2023-11-13T00:14:57.830Z,100826.13
2023-11-13T00:17:25.454Z,100824.22
2023-11-13T00:19:52.201Z,100840.94
2023-11-13T00:22:19.005Z,100836.66
2023-11-13T00:24:45.718Z,100831.41
2023-11-13T00:27:12.352Z,100825.91
2023-11-13T00:29:39.160Z,100833.16
2023-11-13T00:32:06.296Z,100834.84
2023-11-13T00:34:33.517Z,100812.00
2023-11-13T00:37:00.368Z,100806.53
2023-11-13T00:39:26.986Z,100829.78
2023-11-13T00:41:53.609Z,100838.84
2023-11-13T00:44:20.530Z,100841.28
2023-11-13T00:46:47.294Z,100820.88
2023-11-13T00:49:14.082Z,100830.75
2023-11-13T00:51:40.830Z,100841.91
2023-11-13T00:54:07.538Z,100833.06
2023-11-13T00:56:34.201Z,100843.69
2023-11-13T00:59:01.428Z,100830.44
2023-11-13T01:01:28.803Z,100847.19
2023-11-13T01:03:55.862Z,100824.97
2023-11-13T01:06:24.246Z,100815.38
2023-11-13T01:08:50.889Z,100800.22
2023-11-13T01:11:17.736Z,100796.44
2023-11-13T01:13:44.477Z,100801.59
2023-11-13T01:16:11.307Z,100803.59
2023-11-13T01:18:38.139Z,100793.50
2023-11-13T01:21:05.019Z,100792.34
2023-11-13T01:23:31.699Z,100730.78
2023-11-13T01:25:58.490Z,100789.69
2023-11-13T01:28:25.497Z,100790.78
2023-11-13T01:30:52.148Z,100789.09
2023-11-13T01:33:20.896Z,100730.78
2023-11-13T01:35:47.705Z,100770.47
2023-11-13T01:38:14.590Z,100777.72
2023-11-13T01:40:42.436Z,100765.84
2023-11-13T01:43:29.537Z,100770.97
2023-11-13T01:45:59.338Z,100775.59
2023-11-13T01:48:27.083Z,100766.97
2023-11-13T01:50:54.649Z,100727.28
2023-11-13T01:53:24.763Z,100756.44
2023-11-13T01:55:56.610Z,100759.06
2023-11-13T01:58:24.323Z,100715.41
2023-11-13T02:00:51.289Z,100774.16
2023-11-13T02:03:20.378Z,100766.03
2023-11-13T02:05:48.282Z,100791.81
2023-11-13T02:08:14.942Z,100773.38
2023-11-13T02:10:41.728Z,100790.38
2023-11-13T02:13:11.831Z,100760.44
2023-11-13T02:15:39.319Z,100796.22
2023-11-13T02:18:06.563Z,100799.56
2023-11-13T02:20:33.953Z,100788.00
2023-11-13T02:23:00.853Z,100795.38
2023-11-13T02:25:28.155Z,100770.97
2023-11-13T02:27:59.189Z,100783.88
2023-11-13T02:30:25.920Z,100776.22
2023-11-13T02:32:52.895Z,100776.00
2023-11-13T02:35:19.832Z,100770.31
2023-11-13T02:37:46.925Z,100748.13
2023-11-13T02:40:14.177Z,100745.28
2023-11-13T02:42:42.300Z,100758.31
2023-11-13T02:45:10.290Z,100748.44
2023-11-13T02:47:38.105Z,100750.53
2023-11-13T02:50:05.972Z,100737.06
2023-11-13T02:52:32.692Z,100740.84
2023-11-13T02:54:59.454Z,100745.81
2023-11-13T02:57:26.105Z,100735.41
2023-11-13T02:59:52.676Z,100750.13
2023-11-13T03:02:19.535Z,100734.75
2023-11-13T03:04:46.206Z,100724.66
2023-11-13T03:07:12.938Z,100717.38
2023-11-13T03:09:39.720Z,100738.66
2023-11-13T03:12:06.780Z,100745.91
2023-11-13T03:14:33.441Z,100734.31
2023-11-13T03:17:00.261Z,100758.50
2023-11-13T03:19:27.059Z,100748.81
2023-11-13T03:21:53.792Z,100750.28
2023-11-13T03:24:20.417Z,100731.97
2023-11-13T03:26:47.040Z,100742.28
2023-11-13T03:29:13.700Z,100708.28
2023-11-13T03:31:40.985Z,100734.84
2023-11-13T03:34:07.938Z,100733.19
2023-11-13T03:36:34.582Z,100738.88
2023-11-13T03:39:01.439Z,100728.53
2023-11-13T03:41:28.257Z,100733.19
2023-11-13T03:43:54.930Z,100721.78
2023-11-13T03:46:21.955Z,100710.56
2023-11-13T03:48:48.659Z,100689.50
2023-11-13T03:51:17.982Z,100699.72
2023-11-13T03:53:46.305Z,100713.38
2023-11-13T03:56:12.904Z,100713.13
2023-11-13T03:58:39.542Z,100715.47
2023-11-13T04:01:09.480Z,100698.63
2023-11-13T04:03:36.243Z,100707.25
2023-11-13T04:06:03.158Z,100705.56
2023-11-13T04:08:30.508Z,100683.75
2023-11-13T04:10:57.487Z,100680.19
2023-11-13T04:13:25.569Z,100684.59
2023-11-13T04:15:52.554Z,100708.38
2023-11-13T04:18:19.207Z,100708.50
2023-11-13T04:20:45.931Z,100700.72
2023-11-13T04:23:12.610Z,100703.34
2023-11-13T04:25:39.582Z,100700.88
2023-11-13T04:28:06.219Z,100702.41
2023-11-13T04:30:35.105Z,100700.50
2023-11-13T04:33:02.067Z,100688.91
2023-11-13T04:35:28.819Z,100693.94
2023-11-13T04:37:55.619Z,100704.16
2023-11-13T04:40:22.592Z,100713.59
2023-11-13T04:42:49.475Z,100695.63
2023-11-13T04:45:16.268Z,100680.19
2023-11-13T04:47:42.846Z,100681.75
2023-11-13T04:50:09.924Z,100689.53
2023-11-13T04:52:36.662Z,100669.91
2023-11-13T04:55:03.651Z,100676.72
2023-11-13T04:57:30.310Z,100671.88
2023-11-13T04:59:57.033Z,100660.63
2023-11-13T05:02:25.058Z,100661.41
2023-11-13T05:04:51.769Z,100657.09
2023-11-13T05:07:19.013Z,100558.78
2023-11-13T05:09:48.404Z,100639.06
2023-11-13T05:12:16.309Z,100622.75
2023-11-13T05:14:43.640Z,100619.50
2023-11-13T05:17:10.501Z,100624.44
2023-11-13T05:19:37.211Z,100617.50
2023-11-13T05:22:05.754Z,100623.59
2023-11-13T05:24:32.458Z,100594.78
2023-11-13T05:26:59.163Z,100606.63
2023-11-13T05:29:27.388Z,100585.84
2023-11-13T05:31:54.865Z,100598.34
2023-11-13T05:34:21.606Z,100595.72
2023-11-13T05:36:48.288Z,100590.25
2023-11-13T05:39:14.940Z,100588.56
2023-11-13T05:41:41.829Z,100554.75
2023-11-13T05:44:08.588Z,100584.91
2023-11-13T05:46:35.547Z,100562.66
2023-11-13T05:49:02.290Z,100565.91
2023-11-13T05:51:28.896Z,100562.56
2023-11-13T05:53:55.500Z,100545.53
2023-11-13T05:56:22.634Z,100557.31
2023-11-13T05:58:50.522Z,100548.91
2023-11-13T06:01:20.821Z,100561.50
2023-11-13T06:03:47.834Z,100553.75
2023-11-13T06:06:16.583Z,100571.88
2023-11-13T06:08:47.412Z,100544.25
2023-11-13T06:11:14.340Z,100575.56
2023-11-13T06:13:41.222Z,100579.22
2023-11-13T06:16:08.120Z,100553.06
2023-11-13T06:18:46.186Z,100532.50
2023-11-13T06:21:12.842Z,100556.03
2023-11-13T06:23:42.009Z,100561.38
2023-11-13T06:26:10.359Z,100555.72
2023-11-13T06:28:36.986Z,100567.56
2023-11-13T06:31:03.746Z,100565.06
2023-11-13T06:33:30.606Z,100547.00
2023-11-13T06:35:57.345Z,100547.94
2023-11-13T06:38:23.976Z,100529.66
2023-11-13T06:40:51.021Z,100546.16
2023-11-13T06:43:20.434Z,100554.16
2023-11-13T06:45:47.141Z,100551.03
2023-11-13T06:48:13.975Z,100527.34
2023-11-13T06:50:40.646Z,100538.00
2023-11-13T06:53:07.915Z,100526.22
2023-11-13T06:55:35.312Z,100532.94
2023-11-13T06:58:02.058Z,100530.84
2023-11-13T07:00:28.771Z,100518.22
2023-11-13T07:02:56.242Z,100520.34
2023-11-13T07:05:23.564Z,100512.28
2023-11-13T07:07:52.162Z,100515.31
2023-11-13T07:10:20.211Z,100499.34
2023-11-13T07:12:46.873Z,100495.59
2023-11-13T07:15:13.481Z,100468.81
2023-11-13T07:17:40.360Z,100490.84
2023-11-13T07:20:08.217Z,100454.22
2023-11-13T07:22:34.938Z,100465.78
2023-11-13T07:25:01.664Z,100478.28
2023-11-13T07:27:28.439Z,100413.28
2023-11-13T07:29:55.997Z,100467.03
2023-11-13T07:32:26.350Z,100474.56
2023-11-13T07:34:55.964Z,100436.34
2023-11-13T07:37:23.533Z,100415.69
2023-11-13T07:39:52.625Z,100429.97
2023-11-13T07:42:19.462Z,100421.47
2023-11-13T07:44:52.809Z,100411.66
2023-11-13T07:47:20.562Z,100390.16
2023-11-13T07:49:47.320Z,100399.69
2023-11-13T07:52:14.744Z,100403.56
2023-11-13T07:54:42.299Z,100398.00
2023-11-13T07:57:12.462Z,100389.28
2023-11-13T07:59:39.442Z,100393.25
2023-11-13T08:02:06.614Z,100388.50
2023-11-13T08:04:33.537Z,100381.88
2023-11-13T08:07:07.362Z,100387.13
2023-11-13T08:09:41.609Z,100372.19
2023-11-13T08:12:09.097Z,100369.25
2023-11-13T08:14:35.765Z,100348.47
2023-11-13T08:17:04.359Z,100372.22
2023-11-13T08:19:31.420Z,100361.22
2023-11-13T08:21:58.194Z,100349.66
2023-11-13T08:24:26.278Z,100360.69
2023-11-13T08:26:53.967Z,100359.84
2023-11-13T08:29:20.739Z,100338.59
2023-11-13T08:31:47.745Z,100357.22
2023-11-13T08:34:16.835Z,100356.06
2023-11-13T08:36:46.152Z,100335.50
2023-11-13T08:39:18.216Z,100345.75
2023-11-13T08:41:45.796Z,100333.81
2023-11-13T08:44:12.673Z,100345.72
2023-11-13T08:46:39.985Z,100334.81
2023-11-13T08:49:07.635Z,100340.47
2023-11-13T08:51:35.281Z,100321.91
2023-11-13T08:54:02.294Z,100322.53
2023-11-13T08:56:28.951Z,100330.31
2023-11-13T08:58:55.622Z,100333.91
2023-11-13T09:01:27.441Z,100319.28
2023-11-13T09:03:56.078Z,100318.72
2023-11-13T09:06:23.470Z,100311.56
2023-11-13T09:08:54.989Z,100238.00
2023-11-13T09:11:23.986Z,100302.88
2023-11-13T09:13:51.168Z,100302.63
2023-11-13T09:16:19.477Z,100285.53
2023-11-13T09:18:50.018Z,100298.19
2023-11-13T09:21:20.585Z,100299.03
2023-11-13T09:23:47.850Z,100309.34
2023-11-13T09:26:14.643Z,100253.81
2023-11-13T09:28:41.693Z,100287.09
2023-11-13T09:31:11.990Z,100296.44
2023-11-13T09:33:41.190Z,100255.66
2023-11-13T09:36:08.717Z,100287.38
2023-11-13T09:38:35.768Z,100265.47
2023-11-13T09:41:05.130Z,100267.41
2023-11-13T09:43:36.947Z,100244.31
2023-11-13T09:46:09.703Z,100248.53
2023-11-13T09:48:45.360Z,100239.69
2023-11-13T09:51:27.740Z,100235.50
2023-11-13T09:53:59.404Z,100237.06
2023-11-13T09:56:29.004Z,100227.84
2023-11-13T09:58:59.194Z,100205.56
2023-11-13T10:01:26.459Z,100210.97
2023-11-13T10:03:53.318Z,100214.69
2023-11-13T10:06:22.818Z,100212.41
2023-11-13T10:08:52.636Z,100194.47
2023-11-13T10:11:20.818Z,100166.88
2023-11-13T10:13:47.505Z,100187.66
2023-11-13T10:16:24.055Z,100174.97
2023-11-13T10:18:51.044Z,100168.25
2023-11-13T10:21:23.078Z,100163.44
2023-11-13T10:23:49.951Z,100156.03
2023-11-13T10:26:26.678Z,100152.44
2023-11-13T10:28:53.512Z,100138.28
2023-11-13T10:31:25.051Z,100137.34
2023-11-13T10:34:04.564Z,100129.78
2023-11-13T10:36:33.953Z,100081.84
2023-11-13T10:39:01.280Z,100084.06
2023-11-13T10:41:35.109Z,100072.47
2023-11-13T10:44:22.291Z,100078.38
2023-11-13T10:46:50.942Z,100078.13
2023-11-13T10:49:19.120Z,100042.28
2023-11-13T10:51:51.836Z,100053.91
2023-11-13T10:54:20.094Z,100041.19
2023-11-13T10:56:50.486Z,100020.19
2023-11-13T10:59:17.291Z,100019.28
2023-11-13T11:01:46.889Z,99981.06
2023-11-13T11:04:17.745Z,99981.56
2023-11-13T11:06:47.433Z,100006.22
2023-11-13T11:09:19.412Z,99972.88
2023-11-13T11:11:48.987Z,99949.63
2023-11-13T11:14:24.843Z,99946.16
2023-11-13T11:17:10.126Z,99953.59
2023-11-13T11:19:46.009Z,99926.22
2023-11-13T11:22:33.247Z,99931.91
2023-11-13T11:25:30.448Z,99928.75
2023-11-13T11:27:58.624Z,99915.28
2023-11-13T11:30:25.257Z,99925.72
2023-11-13T11:32:57.326Z,99906.44
2023-11-13T11:35:26.530Z,99893.81
2023-11-13T11:38:33.643Z,99890.63
2023-11-13T11:41:01.350Z,99830.31
2023-11-13T11:43:34.303Z,99802.13
2023-11-13T11:46:08.293Z,99761.66
2023-11-13T11:48:37.156Z,99771.34
2023-11-13T11:51:13.856Z,99779.94
2023-11-13T11:53:56.121Z,99717.25
2023-11-13T11:56:24.873Z,99760.09
2023-11-13T11:58:52.077Z,99745.25
2023-11-13T12:01:21.187Z,99734.13
2023-11-13T12:03:49.109Z,99694.75
2023-11-13T12:06:17.059Z,99713.84
2023-11-13T12:08:43.808Z,99648.41
2023-11-13T12:11:12.875Z,99672.88
2023-11-13T12:13:40.996Z,99680.19
2023-11-13T12:16:08.001Z,99657.59
2023-11-13T12:18:34.967Z,99657.00
2023-11-13T12:21:03.804Z,99583.81
2023-11-13T12:23:31.589Z,99625.72
2023-11-13T12:25:58.704Z,99600.97
2023-11-13T12:28:25.446Z,99600.88
2023-11-13T12:30:52.098Z,99557.59
2023-11-13T12:33:19.090Z,99568.31
2023-11-13T12:35:45.764Z,99516.44
2023-11-13T12:38:12.429Z,99519.06
2023-11-13T12:40:39.431Z,99503.03
2023-11-13T12:43:06.393Z,99509.63
2023-11-13T12:45:33.804Z,99502.25
2023-11-13T12:48:02.665Z,99489.88
2023-11-13T12:50:29.355Z,99466.81
2023-11-13T12:52:56.705Z,99464.78
2023-11-13T12:55:24.871Z,99443.66
2023-11-13T12:57:55.189Z,99433.91
2023-11-13T13:00:22.940Z,99441.38
2023-11-13T13:02:51.574Z,99440.25
2023-11-13T13:05:28.755Z,99410.22
2023-11-13T13:07:59.887Z,99391.25
2023-11-13T13:10:26.903Z,99389.78
2023-11-13T13:12:55.059Z,99333.88
2023-11-13T13:15:22.775Z,99354.13
2023-11-13T13:17:51.161Z,99360.94
2023-11-13T13:20:25.007Z,99347.53
2023-11-13T13:22:53.548Z,99350.88
2023-11-13T13:25:31.344Z,99349.25
2023-11-13T13:27:59.109Z,99348.28
2023-11-13T13:30:31.492Z,99308.63
2023-11-13T13:32:58.307Z,99340.56
2023-11-13T13:35:25.255Z,99318.75
2023-11-13T13:37:52.057Z,99314.66
2023-11-13T13:40:18.824Z,99329.00
2023-11-13T13:42:46.217Z,99363.25
2023-11-13T13:45:17.972Z,99348.72
2023-11-13T13:47:47.594Z,99346.25
2023-11-13T13:50:20.562Z,99320.31
2023-11-13T13:52:49.671Z,99321.66
2023-11-13T13:57:47.121Z,99335.56
2023-11-13T14:00:36.497Z,99317.69
2023-11-13T14:03:12.388Z,99308.63
2023-11-13T14:05:44.356Z,99284.50
2023-11-13T14:08:17.173Z,99316.03
2023-11-13T14:10:52.703Z,99313.06
2023-11-13T14:13:24.081Z,99294.16
2023-11-13T14:18:26.159Z,99288.00
2023-11-13T14:20:55.139Z,99286.81
2023-11-13T14:23:24.613Z,99282.13
2023-11-13T14:25:53.452Z,99276.75
2023-11-13T14:28:21.833Z,99265.13
2023-11-13T14:30:49.375Z,99273.97
2023-11-13T14:33:19.374Z,99219.28
2023-11-13T14:35:46.420Z,99269.75
2023-11-13T14:38:13.147Z,99257.25
2023-11-13T14:40:40.890Z,99281.06
2023-11-13T14:43:08.051Z,99289.56
2023-11-13T14:45:34.863Z,99289.63
2023-11-13T14:48:02.816Z,99278.00
2023-11-13T14:50:32.296Z,99297.50
2023-11-13T14:52:59.293Z,99258.34
2023-11-13T14:55:27.647Z,99260.28
2023-11-13T14:57:55.000Z,99238.50
2023-11-13T15:00:25.277Z,99240.50
2023-11-13T15:02:54.603Z,99259.78
2023-11-13T15:05:22.163Z,99205.50
2023-11-13T15:07:50.025Z,99239.13
2023-11-13T15:10:18.190Z,99243.81
2023-11-13T15:12:45.622Z,99213.44
2023-11-13T15:15:16.631Z,99275.28
2023-11-13T15:17:46.032Z,99269.63
2023-11-13T15:20:16.161Z,99254.56
2023-11-13T15:23:01.529Z,99266.88
2023-11-13T15:25:32.486Z,99258.06
2023-11-13T15:27:59.242Z,99265.38
2023-11-13T15:30:26.326Z,99266.22
2023-11-13T15:32:53.399Z,99255.50
2023-11-13T15:35:20.244Z,99254.88
2023-11-13T15:37:47.799Z,99279.19
2023-11-13T15:40:16.333Z,99286.97
2023-11-13T15:42:43.538Z,99263.38
2023-11-13T15:45:12.442Z,99273.00
2023-11-13T15:47:40.458Z,99283.19
2023-11-13T15:50:11.241Z,99284.91
2023-11-13T15:52:39.053Z,99307.84
2023-11-13T15:55:06.836Z,99307.38
2023-11-13T15:57:33.577Z,99309.81
2023-11-13T16:00:00.447Z,99303.41
2023-11-13T16:02:27.805Z,99308.53
2023-11-13T16:04:58.367Z,99309.91
2023-11-13T16:07:25.320Z,99322.47
2023-11-13T16:09:53.697Z,99318.81
2023-11-13T16:12:20.918Z,99323.81
2023-11-13T16:14:47.552Z,99310.78
2023-11-13T16:17:14.545Z,99346.81
2023-11-13T16:19:45.573Z,99323.50
2023-11-13T16:22:12.901Z,99320.53
2023-11-13T16:24:40.457Z,99348.28
2023-11-13T16:27:08.019Z,99355.25
2023-11-13T16:29:34.860Z,99335.41
2023-11-13T16:32:01.929Z,99354.41
2023-11-13T16:34:28.709Z,99346.63
2023-11-13T16:36:55.370Z,99364.44
2023-11-13T16:39:22.244Z,99369.75
2023-11-13T16:41:49.266Z,99376.53
2023-11-13T16:44:16.114Z,99350.28
2023-11-13T16:46:43.343Z,99376.31
2023-11-13T16:49:10.158Z,99383.78
2023-11-13T16:51:36.986Z,99390.75
2023-11-13T16:54:10.913Z,99388.78
2023-11-13T16:56:44.235Z,99396.44
2023-11-13T16:59:11.038Z,99403.06
2023-11-13T17:01:38.159Z,99395.34
2023-11-13T17:04:05.435Z,99418.34
2023-11-13T17:06:32.519Z,99406.94
2023-11-13T17:08:59.960Z,99416.72
2023-11-13T17:11:27.246Z,99408.13
2023-11-13T17:13:54.376Z,99395.59
2023-11-13T17:16:22.597Z,99411.41
2023-11-13T17:18:49.315Z,99391.25
2023-11-13T17:21:16.170Z,99403.16
2023-11-13T17:23:43.024Z,99416.72
2023-11-13T17:26:09.814Z,99432.00
2023-11-13T17:28:36.790Z,99442.38
2023-11-13T17:31:04.047Z,99438.91
2023-11-13T17:33:30.894Z,99443.88
2023-11-13T17:35:58.070Z,99397.59
2023-11-13T17:38:25.242Z,99432.94
2023-11-13T17:40:52.468Z,99441.84
2023-11-13T17:43:20.961Z,99437.88
2023-11-13T17:45:49.294Z,99456.78
2023-11-13T17:48:16.556Z,99463.06
2023-11-13T17:50:44.777Z,99464.75
2023-11-13T17:53:14.655Z,99464.41
2023-11-13T17:55:41.713Z,99450.72
2023-11-13T17:58:10.270Z,99470.41
2023-11-13T18:00:37.840Z,99453.03
2023-11-13T18:03:04.680Z,99475.72
2023-11-13T18:05:31.648Z,99478.34
2023-11-13T18:07:58.551Z,99466.78
2023-11-13T18:10:25.298Z,99464.47
2023-11-13T18:12:53.933Z,99455.88
2023-11-13T18:15:20.859Z,99428.09
2023-11-13T18:17:48.618Z,99462.00
2023-11-13T18:20:19.363Z,99464.13
2023-11-13T18:22:49.014Z,99476.41
2023-11-13T18:25:16.859Z,99461.19
2023-11-13T18:27:45.449Z,99457.53
2023-11-13T18:30:12.966Z,99473.25
2023-11-13T18:32:39.735Z,99449.06
2023-11-13T18:35:07.961Z,99437.84
2023-11-13T18:37:36.341Z,99435.56
2023-11-13T18:40:03.208Z,99468.13
2023-11-13T18:42:30.250Z,99468.44
2023-11-13T18:44:57.141Z,99461.81
2023-11-13T18:47:23.955Z,99465.09
2023-11-13T18:49:51.112Z,99478.66
2023-11-13T18:52:18.029Z,99464.44
2023-11-13T18:54:45.668Z,99479.03
2023-11-13T18:57:14.036Z,99466.44
2023-11-13T18:59:42.348Z,99463.81
2023-11-13T19:02:09.484Z,99475.19
2023-11-13T19:04:38.326Z,99461.16
2023-11-13T19:07:08.282Z,99459.00
2023-11-13T19:09:35.995Z,99484.78
2023-11-13T19:12:03.584Z,99481.69
2023-11-13T19:14:30.465Z,99458.34
2023-11-13T19:17:00.472Z,99478.03
2023-11-13T19:19:27.292Z,99476.22
2023-11-13T19:21:54.371Z,99492.59
2023-11-13T19:24:22.317Z,99485.00
2023-11-13T19:26:51.869Z,99462.47
2023-11-13T19:29:22.794Z,99460.81
2023-11-13T19:31:50.815Z,99463.63
2023-11-13T19:34:19.129Z,99471.78
2023-11-13T19:36:46.988Z,99443.66
2023-11-13T19:39:14.380Z,99468.13
2023-11-13T19:41:42.048Z,99503.19
2023-11-13T19:44:10.331Z,99502.88
2023-11-13T19:46:38.224Z,99488.97
2023-11-13T19:49:09.156Z,99507.47
2023-11-13T19:51:36.534Z,99454.88
2023-11-13T19:54:05.021Z,99494.06
2023-11-13T19:56:31.952Z,99499.34
2023-11-13T19:58:59.405Z,99503.16
2023-11-13T20:01:27.120Z,99479.03
2023-11-13T20:03:54.399Z,99502.81
2023-11-13T20:06:21.320Z,99508.75
2023-11-13T20:08:50.964Z,99507.13
2023-11-13T20:11:21.746Z,99532.25
2023-11-13T20:13:48.546Z,99514.84
2023-11-13T20:16:15.501Z,99518.16
2023-11-13T20:18:42.303Z,99522.63
2023-11-13T20:21:10.071Z,99524.97
2023-11-13T20:23:38.415Z,99509.41
2023-11-13T20:26:08.696Z,99531.41
2023-11-13T20:28:36.807Z,99530.19
2023-11-13T20:31:03.613Z,99535.88
2023-11-13T20:33:30.345Z,99526.44
2023-11-13T20:35:57.371Z,99531.22
2023-11-13T20:38:24.190Z,99519.28
2023-11-13T20:40:52.713Z,99503.56
2023-11-13T20:43:20.546Z,99535.72
2023-11-13T20:45:48.215Z,99528.91
2023-11-13T20:48:15.073Z,99525.59
2023-11-13T20:50:41.857Z,99540.34
2023-11-13T20:53:10.062Z,99535.50
2023-11-13T20:55:37.007Z,99532.56
2023-11-13T20:58:06.768Z,99537.88
2023-11-13T21:00:33.420Z,99535.22
2023-11-13T21:03:00.114Z,99532.94
2023-11-13T21:05:26.933Z,99536.03
2023-11-13T21:07:53.730Z,99526.63
2023-11-13T21:10:21.848Z,99548.16
2023-11-13T21:12:49.048Z,99563.75
2023-11-13T21:15:15.791Z,99558.59
2023-11-13T21:17:47.854Z,99548.97
2023-11-13T21:20:14.892Z,99570.38
2023-11-13T21:22:45.539Z,99532.56
2023-11-13T21:25:15.910Z,99544.84
2023-11-13T21:27:43.428Z,99515.00
2023-11-13T21:30:10.912Z,99550.13
2023-11-13T21:32:38.136Z,99565.06
2023-11-13T21:35:05.241Z,99562.59
2023-11-13T21:37:32.203Z,99537.91
2023-11-13T21:39:59.176Z,99555.44
2023-11-13T21:42:26.796Z,99549.97
2023-11-13T21:44:54.017Z,99557.41
2023-11-13T21:47:20.917Z,99563.53
2023-11-13T21:49:47.828Z,99535.22
2023-11-13T21:52:14.981Z,99535.03
2023-11-13T21:54:42.499Z,99528.41
2023-11-13T21:57:11.185Z,99532.38
2023-11-13T21:59:37.882Z,99528.25
2023-11-13T22:02:08.376Z,99542.84
2023-11-13T22:04:35.679Z,99540.66
2023-11-13T22:07:03.743Z,99557.41
2023-11-13T22:09:35.443Z,99540.66
2023-11-13T22:12:02.211Z,99526.59
2023-11-13T22:14:28.964Z,99523.75
2023-11-13T22:16:58.996Z,99547.63
2023-11-13T22:19:27.921Z,99544.31
2023-11-13T22:21:55.000Z,99508.66
2023-11-13T22:24:23.443Z,99509.78
2023-11-13T22:26:53.455Z,99532.50
2023-11-13T22:29:20.892Z,99539.47
2023-11-13T22:31:47.875Z,99529.19
2023-11-13T22:34:14.709Z,99524.72
2023-11-13T22:36:42.970Z,99506.28
2023-11-13T22:39:10.059Z,99524.84
2023-11-13T22:41:36.870Z,99503.00
2023-11-13T22:44:05.316Z,99513.16
2023-11-13T22:46:32.306Z,99505.00
2023-11-13T22:48:59.374Z,99493.22
2023-11-13T22:51:26.161Z,99515.75
2023-11-13T22:53:53.407Z,99497.22
2023-11-13T22:56:20.293Z,99523.56
2023-11-13T22:58:52.796Z,99508.91
2023-11-13T23:01:20.827Z,99523.88
2023-11-13T23:03:49.800Z,99505.69
2023-11-13T23:06:18.291Z,99534.50
2023-11-13T23:08:45.195Z,99517.28
2023-11-13T23:11:12.163Z,99528.91
2023-11-13T23:13:38.905Z,99539.00
2023-11-13T23:16:06.262Z,99522.25
2023-11-13T23:18:33.047Z,99510.50
2023-11-13T23:20:59.792Z,99533.38
2023-11-13T23:23:26.541Z,99525.97
2023-11-13T23:25:55.004Z,99546.19
2023-11-13T23:28:24.024Z,99523.34
2023-11-13T23:30:54.102Z,99541.53
2023-11-13T23:33:21.395Z,99541.53
2023-11-13T23:35:48.330Z,99532.13
2023-11-13T23:38:15.332Z,99549.84
2023-11-13T23:40:41.927Z,99541.88
2023-11-13T23:43:10.245Z,99534.56
2023-11-13T23:45:37.295Z,99543.53
2023-11-13T23:48:04.406Z,99547.19
2023-11-13T23:50:31.526Z,99509.09
2023-11-13T23:52:58.427Z,99526.00
2023-11-13T23:55:25.305Z,99494.88
2023-11-13T23:57:54.249Z,99531.59
